Time;durP1;ratioP1;P1;durP2;ratioP2;P2;SDS_P1;SDS_P2;PMS_P1;PMS_P2;Temp;Humidity;BMP_temperature;BMP_pressure;BME280_temperature;BME280_humidity;BME280_pressure;Samples;Min_cycle;Max_cycle;Signal;HPM_P1;HPM_P2
2023/01/15 01:21:26;;;;;;;23.55;4.57;;;6.20;99.90;;;;;;4957178;29;20054;-81
2023/01/15 01:39:39;;;;;;;17.17;2.60;;;6.10;99.90;;;;;;6034183;23;20029;-81
2023/01/15 01:42:15;;;;;;;18.55;2.17;;;6.20;99.90;;;;;;4939427;29;20146;-81
2023/01/15 01:44:44;;;;;;;27.27;3.08;;;6.10;99.90;;;;;;4956803;29;20432;-81
2023/01/15 01:47:22;;;;;;;26.23;3.13;;;6.10;99.90;;;;;;4939252;29;20492;-81
2023/01/15 01:49:52;;;;;;;21.48;2.67;;;6.10;99.90;;;;;;4939358;29;20058;-81
2023/01/15 01:52:29;;;;;;;20.60;3.55;;;6.00;99.90;;;;;;4956308;29;20071;-81
2023/01/15 01:55:01;;;;;;;24.25;3.50;;;6.10;99.90;;;;;;4956578;29;20047;-81
2023/01/15 01:57:27;;;;;;;18.02;2.92;;;6.10;99.90;;;;;;4939295;29;20043;-81
2023/01/15 01:59:57;;;;;;;20.98;2.92;;;6.10;99.90;;;;;;4956440;29;20134;-81
2023/01/15 02:02:22;;;;;;;24.38;4.25;;;6.00;99.90;;;;;;4956424;29;20419;-81
2023/01/15 02:04:58;;;;;;;14.60;3.42;;;6.00;99.90;;;;;;4956246;29;20043;-81
2023/01/15 02:07:25;;;;;;;15.05;2.30;;;6.00;99.90;;;;;;4956427;29;20039;-81
2023/01/15 02:09:53;;;;;;;27.27;4.88;;;6.10;99.90;;;;;;4955983;29;20487;-81
2023/01/15 02:12:27;;;;;;;25.75;3.35;;;6.00;99.90;;;;;;4938926;29;20047;-81
2023/01/15 02:30:28;;;;;;;10.68;2.30;;;6.10;99.90;;;;;;5493141;23;20047;-81
2023/01/15 02:33:06;;;;;;;14.70;2.78;;;6.10;99.90;;;;;;4974697;28;20055;-81
2023/01/15 02:41:50;;;;;;;25.55;4.00;;;6.00;99.90;;;;;;4974894;28;20050;-81
2023/01/15 02:56:38;;;;;;;21.40;2.70;;;6.00;99.90;;;;;;5022235;23;20383;-81
2023/01/15 03:30:01;;;;;;;20.20;2.80;;;5.90;99.90;;;;;;4955418;28;20038;-81
2023/01/15 03:50:34;;;;;;;10.93;2.50;;;5.90;99.90;;;;;;4911598;28;20170;-81
2023/01/15 03:57:13;;;;;;;21.75;3.88;;;5.90;99.90;;;;;;4970683;28;20045;-81
2023/01/15 03:59:49;;;;;;;17.85;2.90;;;5.80;99.90;;;;;;4977415;28;20061;-81
2023/01/15 04:08:46;;;;;;;40.42;4.38;;;5.80;99.90;;;;;;4958691;28;20054;-81
2023/01/15 04:11:42;;;;;;;26.70;3.15;;;5.80;99.90;;;;;;4958399;28;20043;-81
2023/01/15 04:18:22;;;;;;;17.63;1.92;;;5.70;99.90;;;;;;4958366;29;20132;-81
2023/01/15 04:21:22;;;;;;;14.15;2.40;;;5.70;99.90;;;;;;4940992;29;20071;-81
2023/01/15 04:23:48;;;;;;;18.38;3.22;;;5.70;99.90;;;;;;4958187;28;20066;-81
2023/01/15 04:26:20;;;;;;;16.02;2.17;;;5.60;99.90;;;;;;4940085;29;20067;-81
2023/01/15 04:37:01;;;;;;;22.48;3.90;;;5.60;99.90;;;;;;4898599;29;20048;-80
2023/01/15 04:40:04;;;;;;;18.67;2.60;;;5.50;99.90;;;;;;4882952;29;20108;-81
2023/01/15 04:51:14;;;;;;;19.33;2.35;;;5.50;99.90;;;;;;6024814;23;20025;-80
2023/01/15 05:13:06;;;;;;;13.68;2.83;;;5.30;99.90;;;;;;4976556;28;20113;-81
2023/01/15 05:18:55;;;;;;;19.50;3.25;;;5.40;99.90;;;;;;6033941;23;20092;-80
2023/01/15 05:21:26;;;;;;;21.20;3.08;;;5.40;99.90;;;;;;4958728;28;20059;-81
2023/01/15 05:23:56;;;;;;;16.70;1.80;;;5.40;99.90;;;;;;4975847;28;20097;-81
2023/01/15 05:26:22;;;;;;;18.20;2.30;;;5.40;99.90;;;;;;4975856;28;20054;-81
2023/01/15 05:28:48;;;;;;;19.00;2.70;;;5.30;99.90;;;;;;4959211;28;20038;-81
2023/01/15 05:52:25;;;;;;;23.35;3.72;;;5.30;99.90;;;;;;4976127;28;20057;-81
2023/01/15 05:55:31;;;;;;;20.25;3.83;;;5.20;99.90;;;;;;4975848;28;20081;-81
2023/01/15 06:20:52;;;;;;;15.70;2.92;;;5.20;99.90;;;;;;4953945;29;20057;-81
2023/01/15 06:29:09;;;;;;;27.70;3.67;;;5.20;99.90;;;;;;5196802;23;20054;-81
2023/01/15 06:31:34;;;;;;;19.27;3.13;;;5.20;99.90;;;;;;4974723;28;20058;-81
2023/01/15 06:34:00;;;;;;;21.00;3.30;;;5.20;99.90;;;;;;4957566;28;20055;-81
2023/01/15 06:36:28;;;;;;;10.48;2.35;;;5.20;99.90;;;;;;4975164;28;20053;-81
2023/01/15 06:52:37;;;;;;;19.52;2.35;;;5.20;99.90;;;;;;5476508;23;20125;-80
2023/01/15 07:02:49;;;;;;;15.52;2.72;;;5.10;99.90;;;;;;5157573;23;20525;-81
2023/01/15 07:05:15;;;;;;;18.67;2.70;;;5.10;99.90;;;;;;4957277;28;20069;-80
2023/01/15 07:13:33;;;;;;;14.60;1.85;;;5.20;99.90;;;;;;5443380;23;20051;-80
2023/01/15 07:31:08;;;;;;;14.15;2.38;;;5.00;99.90;;;;;;4943877;28;20045;-80
2023/01/15 07:50:19;;;;;;;25.33;2.70;;;4.80;99.90;;;;;;4960662;28;20059;-82
2023/01/15 07:52:47;;;;;;;13.95;2.40;;;4.80;99.90;;;;;;4977734;28;20066;-82
2023/01/15 07:55:16;;;;;;;22.05;3.67;;;4.70;99.90;;;;;;4960432;28;20507;-82
2023/01/15 07:57:42;;;;;;;18.50;2.50;;;4.80;99.90;;;;;;4960505;28;20035;-83
2023/01/15 08:00:14;;;;;;;12.07;2.90;;;4.90;99.90;;;;;;4960146;28;20078;-83
2023/01/15 08:02:40;;;;;;;11.50;1.58;;;4.90;99.90;;;;;;4960162;28;20380;-83
2023/01/15 08:05:08;;;;;;;18.08;2.20;;;4.90;99.90;;;;;;4977559;28;20541;-83
2023/01/15 08:07:38;;;;;;;21.70;2.33;;;4.90;99.90;;;;;;5120639;23;20014;-82
2023/01/15 08:10:07;;;;;;;20.67;3.08;;;4.90;99.90;;;;;;4976681;28;20089;-82
2023/01/15 08:17:56;;;;;;;17.92;3.03;;;4.90;99.90;;;;;;5356894;23;20058;-83
2023/01/15 08:20:26;;;;;;;10.45;2.83;;;5.00;99.90;;;;;;4959935;28;20094;-83
2023/01/15 08:22:54;;;;;;;14.60;2.73;;;4.90;99.90;;;;;;4977328;28;20043;-82
2023/01/15 08:25:23;;;;;;;15.32;2.85;;;4.90;99.90;;;;;;4976582;28;20381;-82
2023/01/15 08:27:49;;;;;;;14.65;2.40;;;4.90;99.90;;;;;;4977154;28;20086;-81
2023/01/15 08:30:21;;;;;;;11.55;1.75;;;4.90;99.90;;;;;;4976225;28;20126;-81
2023/01/15 08:32:49;;;;;;;10.13;2.40;;;4.90;99.90;;;;;;4976837;28;20406;-81
2023/01/15 08:35:15;;;;;;;10.82;3.03;;;4.90;99.90;;;;;;4976885;28;20082;-81
2023/01/15 08:37:41;;;;;;;16.27;3.20;;;5.00;99.90;;;;;;4976809;28;20063;-79
2023/01/15 08:43:58;;;;;;;11.10;2.05;;;5.00;99.90;;;;;;4976713;28;20097;-81
2023/01/15 08:46:24;;;;;;;13.02;2.30;;;4.90;99.90;;;;;;4976942;28;20094;-81
2023/01/15 08:52:15;;;;;;;17.35;3.08;;;5.00;99.90;;;;;;4976469;28;20515;-80
2023/01/15 08:54:42;;;;;;;18.98;1.88;;;4.90;99.90;;;;;;4976535;28;20058;-81
2023/01/15 09:05:34;;;;;;;14.50;2.33;;;5.10;99.90;;;;;;4976546;28;20041;-81
2023/01/15 09:11:44;;;;;;;21.67;2.38;;;5.20;99.90;;;;;;4976433;28;20101;-80
2023/01/15 09:15:04;;;;;;;21.23;2.20;;;5.20;99.90;;;;;;4958841;28;20058;-80
2023/01/15 09:17:47;;;;;;;16.23;2.72;;;5.20;99.90;;;;;;4973334;28;20051;-81
2023/01/15 09:20:56;;;;;;;16.85;2.90;;;5.20;99.90;;;;;;4976139;28;20051;-81
2023/01/15 09:33:36;;;;;;;21.58;3.35;;;5.20;99.90;;;;;;5327052;23;20414;-80
2023/01/15 09:36:02;;;;;;;24.38;3.33;;;5.30;99.90;;;;;;4976139;28;20051;-80
2023/01/15 09:53:02;;;;;;;17.60;4.68;;;5.70;99.90;;;;;;4975518;28;20049;-81
2023/01/15 10:02:55;;;;;;;12.48;1.75;;;5.80;99.90;;;;;;5019786;23;20581;-82
2023/01/15 10:05:29;;;;;;;21.85;2.85;;;5.80;99.90;;;;;;4909375;29;20059;-81
2023/01/15 10:15:44;;;;;;;25.45;3.83;;;6.00;99.90;;;;;;4921232;29;20055;-79
2023/01/15 10:19:01;;;;;;;15.25;1.98;;;6.20;99.90;;;;;;4924018;29;20152;-80
2023/01/15 10:22:42;;;;;;;11.63;1.52;;;6.30;99.90;;;;;;4900747;28;20055;-81
2023/01/15 10:25:19;;;;;;;11.13;2.40;;;6.40;99.90;;;;;;4870085;29;20090;-80
2023/01/15 10:27:49;;;;;;;14.13;2.03;;;6.30;99.90;;;;;;4867303;29;20045;-80
2023/01/15 10:30:22;;;;;;;11.82;1.50;;;6.20;99.90;;;;;;4852646;29;20057;-81
2023/01/15 10:32:57;;;;;;;13.13;2.05;;;6.20;99.90;;;;;;4869959;29;20045;-81
2023/01/15 10:35:53;;;;;;;12.30;1.83;;;6.30;99.90;;;;;;4869510;28;20120;-80
2023/01/15 10:38:36;;;;;;;20.95;4.07;;;6.30;99.90;;;;;;4965676;28;20589;-80
2023/01/15 10:41:25;;;;;;;14.93;2.33;;;6.40;99.90;;;;;;4967948;28;20057;-82
2023/01/15 10:44:09;;;;;;;12.68;2.67;;;6.50;99.90;;;;;;4965217;28;20046;-80
2023/01/15 10:46:40;;;;;;;22.50;4.10;;;6.70;99.90;;;;;;4964404;28;20083;-80
2023/01/15 10:49:41;;;;;;;22.33;2.60;;;6.70;99.90;;;;;;4966373;28;20035;-80
2023/01/15 10:57:00;;;;;;;20.15;2.10;;;6.70;99.90;;;;;;4898620;29;20044;-81
2023/01/15 11:00:25;;;;;;;24.50;3.30;;;6.80;99.90;;;;;;4900595;29;20107;-82
2023/01/15 11:06:29;;;;;;;14.00;2.00;;;6.70;99.90;;;;;;4942557;29;20115;-81
2023/01/15 11:09:01;;;;;;;15.68;2.83;;;6.80;99.90;;;;;;4941706;29;20048;-81
2023/01/15 11:23:44;;;;;;;18.60;3.33;;;6.50;99.90;;;;;;4870035;29;20115;-81
2023/01/15 11:26:45;;;;;;;21.55;2.22;;;6.60;99.90;;;;;;4868514;29;20089;-81
2023/01/15 11:36:35;;;;;;;16.02;2.28;;;6.40;99.90;;;;;;5433727;23;20051;-80
2023/01/15 11:39:26;;;;;;;21.17;2.35;;;6.40;99.90;;;;;;5279060;23;20096;-79
2023/01/15 11:54:48;;;;;;;17.88;4.45;;;6.30;99.90;;;;;;4962315;28;20093;-81
2023/01/15 11:57:35;;;;;;;23.10;3.45;;;6.20;99.90;;;;;;4963947;28;20042;-80
2023/01/15 12:24:44;;;;;;;19.75;3.47;;;6.20;99.90;;;;;;5571685;23;19931;-82
2023/01/15 12:27:48;;;;;;;20.85;2.70;;;6.10;99.90;;;;;;4924692;29;20483;-81
2023/01/15 12:30:29;;;;;;;;;;;6.10;99.90;;;;;;4937825;29;20040;-81
2023/01/15 12:38:24;;;;;;;15.55;3.00;;;6.00;99.90;;;;;;5062960;23;1259477;-81
2023/01/15 12:59:42;;;;;;;15.73;2.10;;;5.90;99.90;;;;;;4957075;28;20140;-80
2023/01/15 13:12:01;;;;;;;15.05;2.53;;;6.00;99.90;;;;;;5341522;23;20279;-82
2023/01/15 13:14:49;;;;;;;21.20;3.00;;;5.90;99.90;;;;;;4896986;29;20491;-82
2023/01/15 13:20:38;;;;;;;20.17;3.55;;;6.00;99.90;;;;;;4911171;29;20048;-82
2023/01/15 13:27:11;;;;;;;21.20;3.85;;;5.90;99.90;;;;;;4899765;29;20186;-84
2023/01/15 13:48:06;;;;;;;24.10;3.70;;;6.20;99.90;;;;;;4899247;29;20465;-82
2023/01/15 13:50:41;;;;;;;18.52;3.92;;;6.10;99.90;;;;;;4915252;29;20056;-81
2023/01/15 13:53:36;;;;;;;17.42;2.63;;;6.10;99.90;;;;;;4905894;29;20060;-82
2023/01/15 13:57:08;;;;;;;31.65;4.25;;;6.10;99.90;;;;;;4893240;29;20161;-82
2023/01/15 14:09:36;;;;;;;24.45;3.63;;;6.30;99.90;;;;;;5371951;23;20519;-82
2023/01/15 14:12:52;;;;;;;19.98;3.47;;;6.20;99.90;;;;;;4975395;28;20057;-81
2023/01/15 14:27:01;;;;;;;26.52;4.85;;;6.30;99.90;;;;;;4957512;28;20469;-82
2023/01/15 14:29:49;;;;;;;21.58;3.20;;;6.30;99.90;;;;;;5144772;23;20081;-82
2023/01/15 14:32:40;;;;;;;21.60;3.60;;;6.30;99.90;;;;;;4957674;28;20074;-83
2023/01/15 14:35:19;;;;;;;22.05;3.80;;;6.30;99.90;;;;;;4973674;28;20137;-82
2023/01/15 14:38:03;;;;;;;26.42;4.90;;;6.30;99.90;;;;;;4957348;28;20487;-82
2023/01/15 14:40:34;;;;;;;25.02;4.78;;;6.30;99.90;;;;;;4974682;28;20384;-81
2023/01/15 14:43:09;;;;;;;23.88;3.47;;;6.20;99.90;;;;;;4974694;28;20556;-82
2023/01/15 14:45:39;;;;;;;22.92;3.70;;;6.20;99.90;;;;;;4957345;28;20047;-81
2023/01/15 14:48:29;;;;;;;23.00;3.75;;;6.30;99.90;;;;;;4974575;28;20051;-82
2023/01/15 14:51:17;;;;;;;18.42;3.03;;;6.20;99.90;;;;;;4974600;28;20570;-82
2023/01/15 14:54:00;;;;;;;32.13;5.32;;;6.10;99.90;;;;;;4956586;28;20089;-82
2023/01/15 14:56:42;;;;;;;18.65;2.92;;;6.10;99.90;;;;;;4973458;28;20047;-80
2023/01/15 14:59:56;;;;;;;29.98;5.70;;;6.20;99.90;;;;;;4988720;23;20057;-79
2023/01/15 15:06:16;;;;;;;26.10;4.53;;;6.10;99.90;;;;;;5140153;23;20086;-81
2023/01/15 15:09:34;;;;;;;27.65;3.88;;;6.00;99.90;;;;;;4974432;28;20050;-81
2023/01/15 15:12:20;;;;;;;16.92;3.65;;;6.00;99.90;;;;;;4954027;28;20500;-82
2023/01/15 15:14:59;;;;;;;33.75;5.05;;;6.10;99.90;;;;;;4974309;28;20058;-82
2023/01/15 15:17:35;;;;;;;26.73;4.32;;;6.10;99.90;;;;;;4974557;28;20049;-81
2023/01/15 15:20:18;;;;;;;24.33;4.50;;;6.10;99.90;;;;;;4974081;28;20054;-82
2023/01/15 15:22:46;;;;;;;31.10;4.40;;;6.10;99.90;;;;;;4956530;28;20051;-82
2023/01/15 15:25:22;;;;;;;27.25;5.30;;;6.10;99.90;;;;;;4973682;28;20051;-81
2023/01/15 15:31:55;;;;;;;23.58;4.88;;;6.00;99.90;;;;;;4974181;28;20037;-82
2023/01/15 15:34:56;;;;;;;22.95;4.47;;;6.00;99.90;;;;;;4956861;28;20431;-81
2023/01/15 15:37:42;;;;;;;27.25;4.18;;;6.00;99.90;;;;;;4956724;28;20426;-81
2023/01/15 15:40:18;;;;;;;19.77;3.45;;;5.90;99.90;;;;;;4956628;28;20055;-81
2023/01/15 15:48:51;;;;;;;19.02;3.58;;;5.80;99.90;;;;;;4956704;28;20419;-80
2023/01/15 15:51:29;;;;;;;23.73;3.45;;;5.90;99.90;;;;;;4957424;29;20113;-80
2023/01/15 15:54:15;;;;;;;27.27;4.18;;;5.80;99.90;;;;;;4966291;23;20051;-79
2023/01/15 15:57:15;;;;;;;13.77;3.30;;;5.90;99.90;;;;;;4941113;29;20055;-80
2023/01/15 15:59:55;;;;;;;20.52;2.92;;;5.80;99.90;;;;;;4958276;29;20047;-79
2023/01/15 16:02:35;;;;;;;17.67;3.50;;;5.80;99.90;;;;;;4958303;28;20046;-79
2023/01/15 16:05:22;;;;;;;21.58;4.47;;;5.80;99.90;;;;;;4958416;29;20050;-80
2023/01/15 16:07:48;;;;;;;16.60;3.67;;;5.80;99.90;;;;;;4958273;29;20403;-79
2023/01/15 16:10:42;;;;;;;15.90;3.22;;;5.80;99.90;;;;;;4955204;29;20475;-80
2023/01/15 16:13:42;;;;;;;16.05;3.67;;;5.70;99.90;;;;;;4958369;28;20043;-80
2023/01/15 16:16:14;;;;;;;19.97;2.43;;;5.70;99.90;;;;;;4939194;23;20585;-79
2023/01/15 16:18:50;;;;;;;20.83;2.80;;;5.70;99.90;;;;;;4976211;28;20055;-79
2023/01/15 16:21:24;;;;;;;18.58;2.78;;;5.60;99.90;;;;;;4977490;28;20059;-79
2023/01/15 16:24:03;;;;;;;19.15;3.10;;;5.60;99.90;;;;;;4960026;28;20403;-79
2023/01/15 16:26:42;;;;;;;18.08;3.80;;;5.60;99.90;;;;;;4977254;28;20487;-81
2023/01/15 16:29:34;;;;;;;15.35;3.42;;;5.60;99.90;;;;;;4960132;28;20095;-81
2023/01/15 16:32:08;;;;;;;23.77;5.07;;;5.60;99.90;;;;;;4947568;28;20050;-79
2023/01/15 16:34:38;;;;;;;30.08;5.90;;;5.70;99.90;;;;;;4975328;28;20038;-80
2023/01/15 16:44:28;;;;;;;24.10;3.35;;;5.50;99.90;;;;;;4914217;29;20066;-80
2023/01/15 16:47:52;;;;;;;17.75;3.03;;;5.50;99.90;;;;;;4954421;29;20051;-81
2023/01/15 16:53:34;;;;;;;22.83;4.40;;;5.40;99.90;;;;;;4940375;29;20404;-79
2023/01/15 16:56:04;;;;;;;23.25;4.97;;;5.30;99.90;;;;;;4940737;29;20066;-79
2023/01/15 16:59:00;;;;;;;24.30;4.10;;;5.30;99.90;;;;;;4957298;28;20043;-80
2023/01/15 17:01:55;;;;;;;26.33;5.05;;;5.30;99.90;;;;;;4957045;28;20450;-80
2023/01/15 17:04:50;;;;;;;26.52;3.85;;;5.30;99.90;;;;;;4940386;29;20094;-80
2023/01/15 17:25:02;;;;;;;;;;;;;;;;;;;;;
2023/01/15 17:35:48;;;;;;;14.15;3.53;;;5.00;99.90;;;;;;5070256;23;20055;-80
2023/01/15 17:42:19;;;;;;;18.60;3.75;;;5.00;99.90;;;;;;4976175;28;20109;-80
2023/01/15 17:48:25;;;;;;;21.20;4.63;;;5.10;99.90;;;;;;5112273;23;20515;-80
2023/01/15 17:50:53;;;;;;;20.88;3.50;;;5.00;99.90;;;;;;4956726;29;20055;-80
2023/01/15 18:13:06;;;;;;;21.20;4.93;;;4.80;99.90;;;;;;4975762;28;20084;-79
2023/01/15 18:15:34;;;;;;;22.35;5.60;;;4.80;99.90;;;;;;4958309;28;20051;-79
2023/01/15 18:18:25;;;;;;;27.60;5.93;;;4.80;99.90;;;;;;4940958;28;20063;-79
2023/01/15 18:21:21;;;;;;;17.23;5.05;;;4.80;99.90;;;;;;4929692;28;20055;-79
2023/01/15 18:24:24;;;;;;;27.05;4.65;;;4.70;99.90;;;;;;4958306;28;20055;-79
2023/01/15 18:30:16;;;;;;;33.90;6.20;;;4.60;99.90;;;;;;4898222;28;20056;-80
2023/01/15 18:35:43;;;;;;;24.90;5.68;;;4.50;99.90;;;;;;4975465;28;20059;-79
2023/01/15 18:38:14;;;;;;;26.33;5.75;;;4.50;99.90;;;;;;4975303;28;20043;-79
2023/01/15 18:40:40;;;;;;;25.83;6.50;;;4.60;99.90;;;;;;4957872;28;20454;-79
2023/01/15 18:48:35;;;;;;;20.95;3.83;;;4.40;99.90;;;;;;4974934;28;20053;-79
2023/01/15 18:51:10;;;;;;;18.85;4.38;;;4.50;99.90;;;;;;4982936;23;20046;-78
2023/01/15 18:53:36;;;;;;;29.13;4.65;;;4.40;99.90;;;;;;4954465;29;20093;-80
2023/01/15 18:56:05;;;;;;;17.60;4.68;;;4.40;99.90;;;;;;4955559;29;20082;-79
2023/01/15 18:58:31;;;;;;;18.13;4.68;;;4.50;99.90;;;;;;4955725;29;20043;-79
2023/01/15 19:01:07;;;;;;;22.23;4.00;;;4.40;99.90;;;;;;4955060;29;20051;-80
2023/01/15 19:03:33;;;;;;;18.80;3.83;;;4.30;99.90;;;;;;4946929;23;20051;-79
2023/01/15 19:06:08;;;;;;;17.77;4.20;;;4.30;99.90;;;;;;4974153;28;20150;-80
2023/01/15 19:08:34;;;;;;;17.75;4.35;;;4.40;99.90;;;;;;4973592;28;20555;-80
2023/01/15 19:10:59;;;;;;;22.63;5.20;;;4.30;99.90;;;;;;4957363;28;20055;-80
2023/01/15 19:13:28;;;;;;;27.27;5.93;;;4.20;99.90;;;;;;4974848;28;20049;-80
2023/01/15 19:19:05;;;;;;;19.17;4.18;;;4.30;99.90;;;;;;5171062;23;20093;-79
2023/01/15 19:21:36;;;;;;;22.23;4.63;;;4.20;99.90;;;;;;4981137;23;20447;-80
2023/01/15 19:24:03;;;;;;;25.42;4.68;;;4.10;99.90;;;;;;4976798;28;20047;-80
2023/01/15 19:26:33;;;;;;;14.90;4.13;;;4.20;99.90;;;;;;4978542;28;20062;-80
2023/01/15 19:29:05;;;;;;;21.98;4.55;;;4.20;99.90;;;;;;4978411;28;20086;-79
2023/01/15 19:34:16;;;;;;;31.42;5.32;;;4.10;99.90;;;;;;4982853;23;20051;-80
2023/01/15 19:36:42;;;;;;;26.02;5.50;;;4.20;99.90;;;;;;4978433;28;20086;-80
2023/01/15 19:39:10;;;;;;;21.08;4.03;;;4.20;99.90;;;;;;4978420;28;20057;-79
2023/01/15 19:50:35;;;;;;;17.55;4.63;;;4.20;99.90;;;;;;4978331;28;20054;-80
2023/01/15 19:53:03;;;;;;;20.92;6.38;;;4.20;99.90;;;;;;4964242;23;20134;-80
2023/01/15 19:55:30;;;;;;;25.55;5.18;;;4.20;99.90;;;;;;4958873;28;20047;-80
2023/01/15 19:57:59;;;;;;;21.15;5.03;;;4.00;99.90;;;;;;4957919;29;20047;-80
2023/01/15 20:00:27;;;;;;;16.73;4.50;;;4.10;99.90;;;;;;4957283;29;20526;-80
2023/01/15 20:02:53;;;;;;;16.25;4.13;;;4.10;99.90;;;;;;4958780;28;20087;-80
2023/01/15 20:05:23;;;;;;;38.78;6.35;;;4.20;99.90;;;;;;4958623;28;20055;-80
2023/01/15 20:07:49;;;;;;;16.15;4.60;;;4.20;99.90;;;;;;4958586;28;20043;-80
2023/01/15 20:10:22;;;;;;;17.20;4.85;;;4.10;99.90;;;;;;4958604;28;20073;-80
2023/01/15 20:15:35;;;;;;;19.45;4.25;;;4.30;99.90;;;;;;4958622;28;20062;-80
2023/01/15 20:18:00;;;;;;;27.67;5.22;;;4.10;99.90;;;;;;4958399;28;20479;-79
2023/01/15 20:20:26;;;;;;;29.52;4.65;;;4.20;99.90;;;;;;4957304;29;20047;-80
2023/01/15 20:22:56;;;;;;;16.90;3.70;;;4.20;99.90;;;;;;4955579;29;20051;-80
2023/01/15 20:25:24;;;;;;;20.30;5.15;;;4.20;99.90;;;;;;4958444;28;20063;-79
2023/01/15 20:27:52;;;;;;;23.75;4.80;;;4.30;99.90;;;;;;4958391;28;20047;-79
2023/01/15 20:30:27;;;;;;;21.05;3.70;;;4.20;99.90;;;;;;4958214;28;20058;-80
2023/01/15 20:32:58;;;;;;;17.70;3.85;;;4.30;99.90;;;;;;4958313;28;20113;-80
2023/01/15 20:35:29;;;;;;;21.77;5.18;;;4.20;99.90;;;;;;4956799;28;20061;-80
2023/01/15 20:37:55;;;;;;;18.90;4.95;;;4.30;99.90;;;;;;4958519;28;20043;-80
2023/01/15 20:40:25;;;;;;;16.80;4.60;;;4.40;99.90;;;;;;4956459;29;20411;-80
2023/01/15 20:51:36;;;;;;;17.13;3.30;;;4.70;99.90;;;;;;4960006;28;20069;-79
2023/01/15 20:56:48;;;;;;;17.60;4.47;;;4.60;99.90;;;;;;4983629;23;20054;-80
2023/01/15 20:59:20;;;;;;;21.17;4.75;;;4.80;99.90;;;;;;4959438;28;20327;-80
2023/01/15 21:01:46;;;;;;;26.30;5.38;;;4.80;99.90;;;;;;4959785;28;20102;-80
2023/01/15 21:04:12;;;;;;;20.42;3.92;;;4.70;99.90;;;;;;4959562;28;20050;-80
2023/01/15 21:06:41;;;;;;;28.50;6.40;;;4.60;99.90;;;;;;4976245;28;20053;-79
2023/01/15 21:09:06;;;;;;;19.40;4.20;;;4.60;99.90;;;;;;4976844;28;20133;-79
2023/01/15 21:11:35;;;;;;;23.52;5.68;;;4.70;99.90;;;;;;4959474;28;20062;-79
2023/01/15 21:14:01;;;;;;;19.30;4.45;;;4.90;99.90;;;;;;4976967;28;20042;-79
2023/01/15 21:16:38;;;;;;;17.10;3.72;;;4.80;99.90;;;;;;4959268;28;20490;-79
2023/01/15 21:19:04;;;;;;;21.02;3.40;;;4.80;99.90;;;;;;4959648;28;20569;-79
2023/01/15 21:21:30;;;;;;;20.80;4.43;;;4.80;99.90;;;;;;4976721;28;20051;-79
2023/01/15 21:23:58;;;;;;;19.30;4.47;;;5.00;99.90;;;;;;4959188;28;20047;-79
2023/01/15 21:26:24;;;;;;;16.92;5.10;;;4.90;99.90;;;;;;4959030;28;20057;-79
2023/01/15 21:28:58;;;;;;;15.35;3.78;;;4.90;99.90;;;;;;4959532;28;20085;-79
2023/01/15 21:50:57;;;;;;;13.35;4.68;;;5.00;99.90;;;;;;4916666;29;20431;-79
2023/01/15 21:53:57;;;;;;;10.88;3.70;;;4.90;99.90;;;;;;4900904;29;20063;-79
2023/01/15 22:06:03;;;;;;;11.48;4.63;;;4.70;99.90;;;;;;4916216;29;20043;-79
2023/01/15 22:12:41;;;;;;;11.07;4.75;;;4.70;99.90;;;;;;4962955;23;20139;-79
2023/01/15 22:15:41;;;;;;;13.02;6.45;;;4.70;99.90;;;;;;4938905;29;20062;-79
2023/01/15 22:25:03;;;;;;;14.80;7.13;;;4.70;99.90;;;;;;5145803;23;20043;-79
2023/01/15 22:27:29;;;;;;;14.43;7.00;;;4.50;99.90;;;;;;4957977;28;20101;-79
2023/01/15 22:29:55;;;;;;;15.70;7.40;;;4.70;99.90;;;;;;4975160;28;20079;-79
2023/01/15 22:32:21;;;;;;;14.55;6.90;;;4.60;99.90;;;;;;4957791;28;20074;-80
2023/01/15 22:34:50;;;;;;;14.88;7.15;;;4.60;99.90;;;;;;4975699;28;20074;-79
2023/01/15 23:05:27;;;;;;;20.25;9.65;;;4.50;99.90;;;;;;4957365;28;20066;-80
2023/01/15 23:12:43;;;;;;;21.60;10.05;;;4.40;99.90;;;;;;4974593;28;20049;-80
2023/01/15 23:15:23;;;;;;;24.67;9.98;;;4.40;99.90;;;;;;4974571;28;20130;-80
2023/01/15 23:25:31;;;;;;;21.23;9.60;;;4.40;99.90;;;;;;5239157;23;20082;-80
2023/01/15 23:29:05;;;;;;;25.25;9.85;;;4.30;99.90;;;;;;5322851;23;20078;-80
2023/01/15 23:34:36;;;;;;;16.15;7.97;;;4.30;99.90;;;;;;5213465;23;20070;-81
2023/01/15 23:37:01;;;;;;;19.50;8.98;;;4.20;99.90;;;;;;4973620;28;20510;-80
2023/01/15 23:39:34;;;;;;;25.73;9.10;;;4.30;99.90;;;;;;4974459;28;20126;-81
2023/01/15 23:47:37;;;;;;;26.70;11.27;;;4.10;99.90;;;;;;4974587;28;20047;-81
2023/01/15 23:50:18;;;;;;;31.55;11.65;;;4.30;99.90;;;;;;4895810;29;20096;-80
2023/01/15 23:55:20;;;;;;;29.58;12.70;;;4.20;99.90;;;;;;5069076;23;20105;-80
2023/01/15 23:57:46;;;;;;;30.40;12.77;;;4.30;99.90;;;;;;4974247;28;20053;-80
